createdAt,value
2023-04-11T00:01:07.801Z,5.41
2023-04-11T00:03:41.130Z,5.65
2023-04-11T00:06:11.769Z,5.44
2023-04-11T00:08:41.109Z,5.37
2023-04-11T00:11:10.034Z,5.13
2023-04-11T00:13:39.370Z,5.38
2023-04-11T00:16:10.128Z,5.47
2023-04-11T00:18:39.608Z,5.56
2023-04-11T00:21:10.661Z,5.42
2023-04-11T00:23:40.187Z,5.45
2023-04-11T00:26:09.541Z,5.27
2023-04-11T00:28:40.876Z,5.08
2023-04-11T00:31:09.960Z,5.15
2023-04-11T00:33:41.249Z,5.28
2023-04-11T00:36:12.630Z,5.17
2023-04-11T00:38:42.380Z,5.36
2023-04-11T00:41:11.393Z,5.06
2023-04-11T00:43:40.776Z,5.35
2023-04-11T00:46:10.382Z,5.23
2023-04-11T00:48:39.765Z,5.39
2023-04-11T00:51:10.654Z,5.53
2023-04-11T00:53:40.497Z,5.36
2023-04-11T00:56:11.366Z,5.48
2023-04-11T00:58:40.939Z,5.00
2023-04-11T01:01:10.314Z,5.38
2023-04-11T01:03:41.405Z,4.92
2023-04-11T01:06:14.094Z,4.71
2023-04-11T01:08:44.705Z,4.62
2023-04-11T01:11:16.320Z,4.81
2023-04-11T01:13:45.767Z,4.66
2023-04-11T01:16:15.518Z,4.45
2023-04-11T01:18:44.840Z,4.89
2023-04-11T01:21:15.332Z,5.06
2023-04-11T01:23:48.855Z,4.89
2023-04-11T01:26:17.895Z,4.62
2023-04-11T01:28:47.578Z,4.55
2023-04-11T01:31:16.926Z,4.55
2023-04-11T01:33:46.396Z,4.75
2023-04-11T01:36:15.922Z,4.48
2023-04-11T01:38:46.714Z,4.76
2023-04-11T01:41:17.807Z,4.73
2023-04-11T01:43:47.747Z,4.62
2023-04-11T01:46:18.231Z,4.62
2023-04-11T01:48:47.752Z,4.57
2023-04-11T01:51:16.940Z,4.49
2023-04-11T01:53:48.404Z,4.73
2023-04-11T01:56:17.291Z,4.65
2023-04-11T01:58:48.815Z,4.39
2023-04-11T02:01:19.752Z,4.02
2023-04-11T02:03:49.199Z,4.44
2023-04-11T02:06:18.593Z,4.46
2023-04-11T02:08:49.278Z,4.22
2023-04-11T02:11:18.307Z,4.52
2023-04-11T02:13:47.764Z,4.53
2023-04-11T02:16:18.214Z,4.73
2023-04-11T02:18:47.944Z,4.58
2023-04-11T02:21:16.982Z,4.63
2023-04-11T02:23:46.313Z,4.66
2023-04-11T02:26:18.730Z,4.62
2023-04-11T02:28:48.247Z,4.29
2023-04-11T02:31:17.236Z,4.21
2023-04-11T02:33:46.621Z,4.38
2023-04-11T02:36:15.630Z,4.26
2023-04-11T02:38:44.863Z,4.23
2023-04-11T02:41:15.372Z,3.77
2023-04-11T02:43:44.659Z,4.09
2023-04-11T02:46:13.699Z,4.00
2023-04-11T02:48:46.120Z,4.06
2023-04-11T02:51:15.934Z,4.10
2023-04-11T02:53:45.297Z,4.11
2023-04-11T02:56:19.983Z,3.99
2023-04-11T02:58:53.537Z,3.67
2023-04-11T03:01:26.310Z,3.92
2023-04-11T03:03:59.240Z,3.92
2023-04-11T03:06:37.852Z,3.47
2023-04-11T03:09:07.191Z,3.87
2023-04-11T03:11:37.558Z,3.77
2023-04-11T03:14:07.743Z,3.67
2023-04-11T03:16:36.905Z,3.64
2023-04-11T03:19:08.493Z,3.79
2023-04-11T03:21:37.541Z,3.56
2023-04-11T03:24:07.753Z,3.70
2023-04-11T03:26:38.146Z,4.13
2023-04-11T03:29:12.791Z,4.01
2023-04-11T03:31:54.874Z,3.56
2023-04-11T03:34:26.143Z,3.60
2023-04-11T03:36:56.767Z,3.92
2023-04-11T03:39:27.057Z,4.06
2023-04-11T03:41:57.879Z,3.46
2023-04-11T03:44:27.744Z,3.47
2023-04-11T03:46:57.620Z,3.81
2023-04-11T03:49:32.297Z,4.08
2023-04-11T03:52:01.992Z,3.98
2023-04-11T03:54:31.914Z,3.93
2023-04-11T03:57:03.055Z,3.66
2023-04-11T03:59:35.262Z,3.76
2023-04-11T04:02:09.894Z,3.51
2023-04-11T04:04:47.166Z,3.92
2023-04-11T04:07:29.705Z,4.06
2023-04-11T04:10:10.155Z,4.08
2023-04-11T04:12:42.792Z,4.09
2023-04-11T04:15:21.648Z,4.22
2023-04-11T04:17:51.880Z,4.33
2023-04-11T04:20:44.802Z,3.97
2023-04-11T04:23:18.208Z,3.79
2023-04-11T04:26:02.342Z,4.10
2023-04-11T04:28:35.778Z,4.24
2023-04-11T04:31:08.521Z,4.29
2023-04-11T04:33:43.023Z,4.42
2023-04-11T04:36:25.117Z,4.45
2023-04-11T04:38:57.605Z,4.50
2023-04-11T04:41:36.326Z,4.66
2023-04-11T04:44:09.983Z,4.69
2023-04-11T04:46:44.575Z,4.77
2023-04-11T04:49:13.600Z,4.73
2023-04-11T04:51:42.916Z,4.84
2023-04-11T04:54:11.972Z,4.96
2023-04-11T04:56:41.618Z,5.05
2023-04-11T04:59:15.743Z,5.14
2023-04-11T05:01:51.800Z,5.23
2023-04-11T05:04:26.972Z,5.27
2023-04-11T05:07:00.150Z,5.34
2023-04-11T05:09:30.969Z,5.35
2023-04-11T05:12:10.900Z,5.41
2023-04-11T05:14:43.686Z,5.40
2023-04-11T05:17:13.221Z,5.27
2023-04-11T05:19:42.290Z,5.33
2023-04-11T05:22:12.699Z,5.46
2023-04-11T05:24:46.972Z,5.41
2023-04-11T05:27:16.367Z,5.50
2023-04-11T05:29:47.706Z,5.67
2023-04-11T05:32:19.631Z,5.76
2023-04-11T05:34:58.730Z,5.88
2023-04-11T05:37:37.744Z,5.90
2023-04-11T05:40:09.105Z,5.97
2023-04-11T05:42:38.444Z,6.05
2023-04-11T05:45:10.195Z,6.15
2023-04-11T05:47:39.610Z,6.23
2023-04-11T05:50:09.692Z,6.22
2023-04-11T05:52:38.997Z,6.36
2023-04-11T05:55:09.215Z,6.30
2023-04-11T05:57:38.622Z,6.42
2023-04-11T06:00:14.239Z,6.45
2023-04-11T06:02:44.698Z,6.55
2023-04-11T06:05:16.596Z,6.64
2023-04-11T06:07:46.532Z,6.68
2023-04-11T06:10:15.833Z,6.83
2023-04-11T06:12:45.121Z,6.91
2023-04-11T06:15:16.180Z,6.97
2023-04-11T06:17:46.263Z,7.01
2023-04-11T06:20:15.594Z,7.08
2023-04-11T06:22:46.921Z,7.22
2023-04-11T06:25:16.017Z,7.27
2023-04-11T06:27:45.459Z,7.35
2023-04-11T06:30:16.576Z,7.44
2023-04-11T06:32:45.966Z,7.49
2023-04-11T06:35:15.005Z,7.59
2023-04-11T06:37:46.070Z,7.62
2023-04-11T06:40:17.244Z,7.72
2023-04-11T06:42:46.765Z,7.78
2023-04-11T06:45:17.774Z,7.88
2023-04-11T06:47:47.228Z,7.94
2023-04-11T06:50:16.356Z,8.02
2023-04-11T06:52:47.030Z,8.06
2023-04-11T06:55:16.183Z,8.10
2023-04-11T06:57:45.923Z,8.27
2023-04-11T07:00:17.326Z,8.25
2023-04-11T07:02:46.927Z,8.31
2023-04-11T07:05:16.956Z,8.45
2023-04-11T07:07:46.230Z,8.43
2023-04-11T07:10:15.252Z,8.48
2023-04-11T07:12:44.597Z,8.62
2023-04-11T07:15:13.670Z,8.66
2023-04-11T07:17:44.373Z,8.78
2023-04-11T07:20:14.082Z,8.93
2023-04-11T07:22:43.965Z,9.03
2023-04-11T07:25:13.438Z,9.22
2023-04-11T07:27:43.921Z,9.42
2023-04-11T07:30:15.789Z,9.61
2023-04-11T07:32:47.260Z,9.77
2023-04-11T07:35:17.041Z,9.88
2023-04-11T07:37:48.363Z,10.00
2023-04-11T07:40:20.974Z,10.39
2023-04-11T07:42:51.072Z,10.57
2023-04-11T07:45:21.537Z,10.77
2023-04-11T07:47:52.968Z,11.01
2023-04-11T07:50:22.999Z,11.14
2023-04-11T07:52:52.955Z,11.30
2023-04-11T07:55:22.706Z,11.46
2023-04-11T07:57:54.855Z,11.53
2023-04-11T08:00:25.323Z,11.58
2023-04-11T08:02:59.783Z,11.67
2023-04-11T08:05:29.934Z,11.76
2023-04-11T08:07:59.943Z,11.81
2023-04-11T08:10:29.670Z,11.94
2023-04-11T08:13:00.024Z,12.05
2023-04-11T08:15:29.423Z,12.21
2023-04-11T08:18:00.740Z,12.31
2023-04-11T08:20:30.960Z,12.34
2023-04-11T08:23:05.862Z,12.37
2023-04-11T08:25:36.799Z,12.46
2023-04-11T08:28:07.285Z,12.60
2023-04-11T08:30:36.344Z,12.68
2023-04-11T08:33:07.275Z,12.80
2023-04-11T08:35:37.040Z,12.91
2023-04-11T08:38:06.304Z,12.91
2023-04-11T08:40:35.623Z,13.08
2023-04-11T08:43:10.132Z,13.11
2023-04-11T08:45:39.362Z,13.28
2023-04-11T08:48:12.330Z,13.40
2023-04-11T08:50:42.506Z,13.49
2023-04-11T08:53:11.780Z,13.47
2023-04-11T08:55:48.553Z,13.53
2023-04-11T08:58:17.978Z,13.45
2023-04-11T09:00:47.343Z,13.44
2023-04-11T09:03:19.072Z,13.52
2023-04-11T09:05:48.564Z,13.47
2023-04-11T09:08:19.191Z,13.54
2023-04-11T09:10:48.352Z,13.47
2023-04-11T09:13:22.653Z,13.57
2023-04-11T09:16:06.281Z,13.67
2023-04-11T09:18:38.769Z,13.88
2023-04-11T09:21:09.140Z,13.99
2023-04-11T09:23:39.388Z,14.15
2023-04-11T09:26:09.002Z,14.40
2023-04-11T09:28:45.119Z,14.57
2023-04-11T09:31:14.325Z,14.71
2023-04-11T09:33:55.155Z,14.75
2023-04-11T09:36:27.208Z,14.78
2023-04-11T09:38:57.231Z,15.07
2023-04-11T09:41:33.441Z,15.20
2023-04-11T09:44:03.428Z,15.51
2023-04-11T09:46:32.525Z,15.59
2023-04-11T09:49:03.795Z,15.59
2023-04-11T09:51:37.060Z,15.39
2023-04-11T09:54:07.295Z,15.43
2023-04-11T09:56:36.447Z,15.64
2023-04-11T09:59:06.003Z,15.69
2023-04-11T10:01:35.041Z,15.60
2023-04-11T10:04:05.907Z,15.43
2023-04-11T10:06:41.989Z,15.39
2023-04-11T10:09:13.557Z,15.37
2023-04-11T10:11:44.042Z,15.31
2023-04-11T10:14:43.752Z,15.33
2023-04-11T10:17:21.201Z,15.33
2023-04-11T10:19:57.365Z,15.37
2023-04-11T10:22:59.553Z,15.48
2023-04-11T10:25:29.672Z,15.68
2023-04-11T10:28:02.410Z,15.60
2023-04-11T10:31:04.070Z,15.47
2023-04-11T10:33:33.998Z,15.60
2023-04-11T10:36:06.367Z,15.60
2023-04-11T10:38:49.237Z,15.72
2023-04-11T10:41:36.790Z,15.67
2023-04-11T10:44:20.828Z,15.73
2023-04-11T10:46:53.806Z,15.66
2023-04-11T10:49:37.946Z,15.90
2023-04-11T10:52:24.831Z,16.02
2023-04-11T10:54:55.195Z,16.14
2023-04-11T10:57:24.514Z,15.87
2023-04-11T11:00:00.857Z,15.90
2023-04-11T11:02:40.862Z,16.10
2023-04-11T11:05:20.590Z,16.04
2023-04-11T11:07:54.258Z,15.82
2023-04-11T11:10:40.001Z,15.59
2023-04-11T11:13:09.651Z,15.67
2023-04-11T11:15:39.108Z,15.61
2023-04-11T11:18:10.351Z,15.56
2023-04-11T11:20:40.559Z,15.55
2023-04-11T11:23:12.325Z,15.63
2023-04-11T11:25:41.349Z,15.93
2023-04-11T11:28:11.512Z,15.84
2023-04-11T11:30:54.836Z,15.99
2023-04-11T11:33:27.477Z,16.06
2023-04-11T11:35:58.517Z,15.76
2023-04-11T11:38:31.871Z,15.80
2023-04-11T11:41:01.602Z,15.71
2023-04-11T11:43:30.886Z,15.82
2023-04-11T11:46:15.177Z,15.85
2023-04-11T11:49:00.117Z,15.69
2023-04-11T11:51:40.422Z,15.97
2023-04-11T11:54:12.681Z,16.02
2023-04-11T11:56:42.562Z,15.82
2023-04-11T11:59:11.878Z,15.80
2023-04-11T12:01:43.923Z,15.78
2023-04-11T12:04:13.449Z,15.70
2023-04-11T12:06:45.969Z,15.82
2023-04-11T12:09:17.157Z,15.74
2023-04-11T12:11:46.262Z,15.81
2023-04-11T12:14:24.696Z,15.69
2023-04-11T12:16:55.674Z,15.76
2023-04-11T12:19:25.631Z,15.80
2023-04-11T12:21:54.627Z,15.92
2023-04-11T12:24:25.452Z,16.08
2023-04-11T12:29:43.757Z,16.24
2023-04-11T12:32:12.735Z,16.32
2023-04-11T12:34:41.991Z,16.25
2023-04-11T12:37:11.087Z,16.57
2023-04-11T12:39:42.344Z,16.52
2023-04-11T12:42:11.848Z,16.48
2023-04-11T12:44:41.404Z,16.42
2023-04-11T12:47:10.402Z,16.55
2023-04-11T12:49:40.032Z,16.37
2023-04-11T12:52:09.347Z,16.54
2023-04-11T12:54:40.270Z,16.35
2023-04-11T12:57:09.308Z,16.29
2023-04-11T12:59:38.808Z,16.32
2023-04-11T13:02:08.537Z,16.21
2023-04-11T13:04:37.937Z,16.10
2023-04-11T13:07:07.096Z,15.86
2023-04-11T13:09:37.064Z,15.95
2023-04-11T13:12:08.137Z,15.79
2023-04-11T13:14:37.790Z,15.77
2023-04-11T13:17:06.787Z,15.72
2023-04-11T13:19:36.466Z,15.50
2023-04-11T13:22:05.567Z,15.48
2023-04-11T13:24:35.015Z,15.41
2023-04-11T13:27:04.151Z,15.31
2023-04-11T13:29:35.597Z,15.35
2023-04-11T13:32:04.811Z,15.61
2023-04-11T13:34:34.167Z,15.45
2023-04-11T13:37:03.776Z,15.28
2023-04-11T13:39:33.508Z,15.35
2023-04-11T13:42:02.588Z,15.27
2023-04-11T13:44:33.360Z,15.18
2023-04-11T13:47:03.713Z,15.24
2023-04-11T13:49:33.241Z,15.31
2023-04-11T13:52:02.262Z,15.08
2023-04-11T13:54:31.552Z,15.06
2023-04-11T13:57:01.143Z,15.08
2023-04-11T13:59:30.567Z,15.19
2023-04-11T14:02:01.428Z,14.91
2023-04-11T14:04:31.011Z,14.91
2023-04-11T14:07:00.121Z,14.91
2023-04-11T14:09:29.976Z,14.83
2023-04-11T14:11:59.966Z,14.93
2023-04-11T14:14:29.392Z,14.81
2023-04-11T14:16:58.373Z,14.89
2023-04-11T14:19:29.478Z,14.87
2023-04-11T14:21:58.921Z,14.75
2023-04-11T14:24:29.553Z,14.75
2023-04-11T14:26:58.625Z,14.78
2023-04-11T14:29:29.895Z,14.92
2023-04-11T14:32:00.263Z,14.77
2023-04-11T14:34:31.940Z,14.65
2023-04-11T14:37:01.037Z,14.49
2023-04-11T14:39:30.506Z,14.47
2023-04-11T14:42:02.165Z,14.62
2023-04-11T14:44:31.604Z,14.46
2023-04-11T14:47:00.620Z,14.58
2023-04-11T14:49:31.669Z,14.63
2023-04-11T14:52:01.341Z,14.65
2023-04-11T14:54:30.888Z,14.46
2023-04-11T14:57:00.729Z,14.50
2023-04-11T14:59:30.863Z,14.46
2023-04-11T15:02:00.087Z,14.41
2023-04-11T15:04:31.044Z,14.36
2023-04-11T15:07:00.287Z,14.32
2023-04-11T15:09:29.575Z,14.31
2023-04-11T15:11:58.610Z,14.37
2023-04-11T15:14:29.573Z,14.32
2023-04-11T15:16:58.785Z,14.24
2023-04-11T15:19:28.426Z,14.11
2023-04-11T15:21:59.102Z,14.28
2023-04-11T15:24:28.467Z,14.30
2023-04-11T15:26:57.712Z,14.37
2023-04-11T15:29:27.050Z,14.32
2023-04-11T15:31:56.107Z,14.32
2023-04-11T15:34:26.561Z,14.46
2023-04-11T15:36:56.806Z,14.37
2023-04-11T15:39:27.650Z,14.28
2023-04-11T15:41:57.145Z,14.26
2023-04-11T15:44:26.660Z,14.41
2023-04-11T15:46:55.717Z,14.33
2023-04-11T15:49:25.037Z,14.39
2023-04-11T15:51:54.121Z,14.35
2023-04-11T15:54:23.409Z,14.25
2023-04-11T15:56:53.820Z,14.19
2023-04-11T15:59:25.014Z,14.13
2023-04-11T16:01:54.094Z,14.22
2023-04-11T16:04:23.863Z,14.27
2023-04-11T16:06:53.444Z,14.14
2023-04-11T16:09:23.015Z,14.09
2023-04-11T16:11:53.662Z,13.97
2023-04-11T16:14:22.969Z,14.11
2023-04-11T16:16:53.003Z,14.06
2023-04-11T16:19:22.460Z,14.03
2023-04-11T16:21:51.543Z,13.93
2023-04-11T16:24:21.045Z,13.98
2023-04-11T16:26:50.070Z,13.86
2023-04-11T16:29:20.809Z,13.89
2023-04-11T16:31:49.937Z,13.85
2023-04-11T16:34:19.256Z,13.91
2023-04-11T16:36:48.465Z,13.79
2023-04-11T16:39:17.775Z,13.88
2023-04-11T16:41:47.451Z,13.90
2023-04-11T16:44:18.240Z,13.78
2023-04-11T16:46:48.620Z,13.79
2023-04-11T16:49:19.053Z,13.86
2023-04-11T16:51:48.039Z,13.98
2023-04-11T16:54:17.477Z,13.27
2023-04-11T16:56:47.435Z,13.19
2023-04-11T16:59:17.392Z,13.12
2023-04-11T17:01:48.022Z,12.55
2023-04-11T17:04:18.206Z,12.22
2023-04-11T17:06:47.418Z,12.33
2023-04-11T17:09:16.704Z,12.06
2023-04-11T17:11:45.728Z,12.00
2023-04-11T17:14:15.317Z,11.70
2023-04-11T17:16:46.107Z,11.87
2023-04-11T17:19:17.030Z,11.44
2023-04-11T17:21:46.130Z,11.33
2023-04-11T17:24:15.876Z,11.63
2023-04-11T17:26:45.054Z,11.69
2023-04-11T17:29:14.810Z,11.40
2023-04-11T17:31:43.844Z,11.27
2023-04-11T17:34:13.100Z,11.07
2023-04-11T17:36:43.620Z,11.10
2023-04-11T17:39:17.839Z,11.01
2023-04-11T17:41:47.312Z,10.96
2023-04-11T17:44:16.675Z,10.71
2023-04-11T17:46:46.177Z,10.38
2023-04-11T17:49:16.412Z,10.26
2023-04-11T17:51:58.171Z,10.79
2023-04-11T17:54:29.349Z,10.48
2023-04-11T17:56:58.690Z,10.17
2023-04-11T17:59:28.308Z,10.23
2023-04-11T18:01:57.571Z,10.09
2023-04-11T18:04:27.140Z,10.16
2023-04-11T18:06:58.308Z,10.41
2023-04-11T18:09:31.861Z,10.36
2023-04-11T18:12:00.976Z,10.37
2023-04-11T18:14:30.281Z,10.27
2023-04-11T18:16:59.310Z,10.49
2023-04-11T18:19:28.600Z,10.64
2023-04-11T18:21:59.012Z,10.78
2023-04-11T18:24:28.355Z,10.88
2023-04-11T18:26:57.337Z,10.82
2023-04-11T18:29:26.622Z,10.72
2023-04-11T18:32:19.467Z,10.77
2023-04-11T18:34:45.358Z,10.76
2023-04-11T18:37:15.741Z,10.63
2023-04-11T18:39:45.210Z,10.43
2023-04-11T18:42:14.213Z,9.98
2023-04-11T18:44:44.485Z,9.62
2023-04-11T18:47:16.973Z,10.21
2023-04-11T18:49:47.154Z,10.43
2023-04-11T18:52:17.816Z,10.42
2023-04-11T18:54:47.136Z,10.51
2023-04-11T18:57:16.258Z,10.57
2023-04-11T18:59:48.942Z,10.56
2023-04-11T19:02:19.736Z,10.55
2023-04-11T19:04:49.541Z,10.61
2023-04-11T19:07:20.074Z,10.59
2023-04-11T19:09:49.650Z,10.39
2023-04-11T19:12:19.232Z,10.46
2023-04-11T19:14:48.794Z,10.48
2023-04-11T19:17:17.804Z,10.41
2023-04-11T19:19:47.363Z,10.39
2023-04-11T19:22:16.561Z,10.33
2023-04-11T19:24:49.062Z,10.32
2023-04-11T19:27:18.524Z,10.26
2023-04-11T19:29:47.771Z,10.33
2023-04-11T19:32:17.699Z,10.28
2023-04-11T19:34:47.883Z,10.19
2023-04-11T19:37:19.348Z,10.20
2023-04-11T19:39:50.197Z,10.25
2023-04-11T19:42:19.197Z,10.24
2023-04-11T19:44:48.648Z,10.27
2023-04-11T19:47:19.514Z,10.24
2023-04-11T19:49:49.703Z,10.14
2023-04-11T19:52:18.783Z,10.16
2023-04-11T19:54:49.466Z,9.97
2023-04-11T19:57:18.518Z,9.13
2023-04-11T19:59:47.868Z,8.96
2023-04-11T20:02:16.888Z,8.77
2023-04-11T20:04:46.727Z,9.15
2023-04-11T20:07:15.770Z,9.49
2023-04-11T20:09:45.086Z,9.55
2023-04-11T20:12:15.766Z,9.49
2023-04-11T20:14:45.073Z,9.24
2023-04-11T20:17:14.089Z,9.14
2023-04-11T20:19:44.966Z,9.34
2023-04-11T20:22:18.355Z,9.26
2023-04-11T20:24:47.753Z,9.37
2023-04-11T20:27:18.150Z,9.35
2023-04-11T20:29:47.493Z,9.47
2023-04-11T20:32:16.478Z,9.15
2023-04-11T20:34:46.125Z,9.16
2023-04-11T20:37:17.072Z,9.22
2023-04-11T20:39:48.205Z,9.21
2023-04-11T20:42:20.582Z,9.29
2023-04-11T20:44:51.119Z,9.18
2023-04-11T20:47:20.229Z,9.06
2023-04-11T20:49:49.703Z,8.87
2023-04-11T20:52:18.799Z,8.96
2023-04-11T20:54:48.162Z,8.95
2023-04-11T20:57:18.535Z,9.04
2023-04-11T20:59:50.511Z,9.16
2023-04-11T21:02:19.760Z,9.07
2023-04-11T21:04:51.740Z,9.00
2023-04-11T21:07:21.521Z,8.99
2023-04-11T21:09:51.866Z,9.00
2023-04-11T21:12:22.301Z,8.97
2023-04-11T21:14:51.707Z,8.87
2023-04-11T21:17:21.615Z,8.92
2023-04-11T21:19:50.745Z,8.78
2023-04-11T21:22:19.777Z,8.89
2023-04-11T21:24:49.138Z,8.93
2023-04-11T21:27:18.121Z,8.85
2023-04-11T21:29:48.945Z,8.88
2023-04-11T21:32:17.976Z,8.93
2023-04-11T21:34:47.282Z,8.99
2023-04-11T21:37:16.383Z,8.97
2023-04-11T21:39:45.667Z,8.95
2023-04-11T21:42:14.657Z,8.95
2023-04-11T21:44:43.993Z,8.76
2023-04-11T21:47:14.428Z,8.93
2023-04-11T21:49:43.778Z,8.85
2023-04-11T21:52:12.793Z,8.96
2023-04-11T21:54:44.816Z,8.80
2023-04-11T21:57:14.000Z,8.76
2023-04-11T21:59:43.266Z,8.82
2023-04-11T22:02:13.821Z,8.83
2023-04-11T22:05:01.176Z,8.91
2023-04-11T22:07:38.482Z,8.86
2023-04-11T22:10:12.102Z,8.80
2023-04-11T22:12:41.794Z,8.79
2023-04-11T22:15:12.942Z,8.81
2023-04-11T22:17:46.247Z,8.84
2023-04-11T22:20:16.667Z,8.90
2023-04-11T22:22:46.127Z,8.81
2023-04-11T22:25:18.265Z,8.81
2023-04-11T22:27:47.319Z,8.80
2023-04-11T22:30:16.822Z,8.82
2023-04-11T22:32:47.377Z,8.80
2023-04-11T22:35:16.824Z,8.82
2023-04-11T22:37:45.831Z,8.74
2023-04-11T22:40:22.056Z,8.79
2023-04-11T22:42:52.045Z,8.76
2023-04-11T22:45:21.346Z,8.78
2023-04-11T22:47:54.613Z,8.57
2023-04-11T22:50:24.135Z,8.66
2023-04-11T22:52:54.837Z,8.73
2023-04-11T22:55:25.074Z,8.74
2023-04-11T22:57:54.153Z,8.74
2023-04-11T23:00:24.217Z,8.74
2023-04-11T23:02:56.904Z,8.72
2023-04-11T23:05:26.323Z,8.70
2023-04-11T23:07:55.506Z,8.73
2023-04-11T23:10:25.309Z,8.70
2023-04-11T23:12:54.321Z,8.73
2023-04-11T23:15:23.564Z,8.60
2023-04-11T23:17:54.026Z,8.68
2023-04-11T23:20:23.591Z,8.69
2023-04-11T23:22:52.541Z,8.43
2023-04-11T23:25:22.251Z,8.28
2023-04-11T23:27:51.334Z,7.82
2023-04-11T23:30:20.585Z,7.92
2023-04-11T23:32:49.653Z,8.22
2023-04-11T23:35:21.106Z,8.44
2023-04-11T23:37:50.985Z,8.54
2023-04-11T23:40:20.369Z,8.60
2023-04-11T23:42:49.329Z,8.60
2023-04-11T23:45:22.557Z,8.59
2023-04-11T23:47:52.270Z,8.53
2023-04-11T23:50:23.431Z,8.34
2023-04-11T23:52:53.814Z,8.43
2023-04-11T23:55:23.593Z,8.53
2023-04-11T23:57:52.613Z,8.51
